createdAt,value
2018-02-05T00:01:35.149Z,17.63
2018-02-05T00:04:02.799Z,21.40
2018-02-05T00:06:30.366Z,21.37
2018-02-05T00:08:57.967Z,21.73
2018-02-05T00:11:25.534Z,21.37
2018-02-05T00:13:53.177Z,21.53
2018-02-05T00:16:20.739Z,18.97
2018-02-05T00:18:48.297Z,19.27
2018-02-05T00:21:16.665Z,18.10
2018-02-05T00:23:44.985Z,21.40
2018-02-05T00:26:12.582Z,20.93
2018-02-05T00:28:40.198Z,20.13
2018-02-05T00:31:07.758Z,20.53
2018-02-05T00:33:35.356Z,20.33
2018-02-05T00:36:02.916Z,20.10
2018-02-05T00:38:30.753Z,20.27
2018-02-05T00:40:58.614Z,18.23
2018-02-05T00:43:26.224Z,16.30
2018-02-05T00:45:53.794Z,20.13
2018-02-05T00:48:21.401Z,19.30
2018-02-05T00:50:49.105Z,17.97
2018-02-05T00:53:16.671Z,18.40
2018-02-05T00:55:44.294Z,17.30
2018-02-05T00:58:11.902Z,18.23
2018-02-05T01:00:39.579Z,18.70
2018-02-05T01:03:07.190Z,26.53
2018-02-05T01:05:34.796Z,21.50
2018-02-05T01:08:02.405Z,23.70
2018-02-05T01:10:29.988Z,22.33
2018-02-05T01:12:57.555Z,19.83
2018-02-05T01:15:25.172Z,22.43
2018-02-05T01:17:52.742Z,23.70
2018-02-05T01:20:20.311Z,20.10
2018-02-05T01:22:47.919Z,25.57
2018-02-05T01:25:15.486Z,22.03
2018-02-05T01:27:43.854Z,20.10
2018-02-05T01:30:11.420Z,19.47
2018-02-05T01:32:39.022Z,22.13
2018-02-05T01:35:06.590Z,17.60
2018-02-05T01:37:34.191Z,19.00
2018-02-05T01:40:01.769Z,16.97
2018-02-05T01:42:30.149Z,18.57
2018-02-05T01:44:58.483Z,20.93
2018-02-05T01:47:26.042Z,17.53
2018-02-05T01:49:53.692Z,16.77
2018-02-05T01:52:21.257Z,17.23
2018-02-05T01:54:48.859Z,16.20
2018-02-05T01:57:16.428Z,19.63
2018-02-05T01:59:44.789Z,17.83
2018-02-05T02:02:12.354Z,17.37
2018-02-05T02:04:39.956Z,18.10
2018-02-05T02:07:07.562Z,17.30
2018-02-05T02:09:35.157Z,13.80
2018-02-05T02:12:02.722Z,17.13
2018-02-05T02:14:31.198Z,14.50
2018-02-05T02:16:58.766Z,15.40
2018-02-05T02:19:26.338Z,14.93
2018-02-05T02:21:53.937Z,13.90
2018-02-05T02:24:21.493Z,12.77
2018-02-05T02:26:49.097Z,14.03
2018-02-05T02:29:16.655Z,17.10
2018-02-05T02:31:44.253Z,11.97
2018-02-05T02:34:11.822Z,13.63
2018-02-05T02:36:39.398Z,14.33
2018-02-05T02:39:07.006Z,15.33
2018-02-05T02:41:34.570Z,17.07
2018-02-05T02:44:02.174Z,13.13
2018-02-05T02:46:29.752Z,11.97
2018-02-05T02:48:57.381Z,15.23
2018-02-05T02:51:24.949Z,12.93
2018-02-05T02:53:52.518Z,13.73
2018-02-05T02:56:20.131Z,13.93
2018-02-05T02:58:47.693Z,12.87
2018-02-05T03:01:15.286Z,13.13
2018-02-05T03:03:42.859Z,12.00
2018-02-05T03:06:10.470Z,14.13
2018-02-05T03:08:38.838Z,16.57
2018-02-05T03:11:06.404Z,14.37
2018-02-05T03:13:34.027Z,14.83
2018-02-05T03:16:01.590Z,12.23
2018-02-05T03:18:29.194Z,11.60
2018-02-05T03:20:56.754Z,12.13
2018-02-05T03:23:25.134Z,12.03
2018-02-05T03:25:53.466Z,13.20
2018-02-05T03:28:21.071Z,12.17
2018-02-05T03:30:48.671Z,11.00
2018-02-05T03:33:16.278Z,13.90
2018-02-05T03:35:43.839Z,10.53
2018-02-05T03:38:11.441Z,12.57
2018-02-05T03:40:39.037Z,13.33
2018-02-05T03:43:06.658Z,10.30
2018-02-05T03:45:35.127Z,13.93
2018-02-05T03:48:02.694Z,13.73
2018-02-05T03:50:30.309Z,13.80
2018-02-05T03:52:57.865Z,14.97
2018-02-05T03:55:25.440Z,12.40
2018-02-05T03:57:53.059Z,13.10
2018-02-05T04:00:20.626Z,12.07
2018-02-05T04:02:48.321Z,14.47
2018-02-05T04:05:15.890Z,10.57
2018-02-05T04:07:43.463Z,11.87
2018-02-05T04:10:11.066Z,11.37
2018-02-05T04:12:38.663Z,11.80
2018-02-05T04:15:06.270Z,10.57
2018-02-05T04:17:33.874Z,11.73
2018-02-05T04:20:01.498Z,11.13
2018-02-05T04:22:29.072Z,13.90
2018-02-05T04:24:56.678Z,10.43
2018-02-05T04:27:24.234Z,13.57
2018-02-05T04:29:51.797Z,11.57
2018-02-05T04:32:19.429Z,10.20
2018-02-05T04:34:46.999Z,10.37
2018-02-05T04:37:14.565Z,10.80
2018-02-05T04:39:42.186Z,9.70
2018-02-05T04:42:10.593Z,10.90
2018-02-05T04:44:38.185Z,9.97
2018-02-05T04:47:05.751Z,9.00
2018-02-05T04:49:33.362Z,13.00
2018-02-05T04:52:00.926Z,12.13
2018-02-05T04:54:28.515Z,10.10
2018-02-05T04:56:56.232Z,11.30
2018-02-05T04:59:24.593Z,10.63
2018-02-05T05:01:52.989Z,12.27
2018-02-05T05:04:21.425Z,11.93
2018-02-05T05:06:49.032Z,9.93
2018-02-05T05:09:16.782Z,10.30
2018-02-05T05:11:44.381Z,10.43
2018-02-05T05:14:11.958Z,10.00
2018-02-05T05:16:39.554Z,14.87
2018-02-05T05:19:07.194Z,13.10
2018-02-05T05:21:34.806Z,11.40
2018-02-05T05:24:03.133Z,9.03
2018-02-05T05:26:30.686Z,8.80
2018-02-05T05:28:58.289Z,12.27
2018-02-05T05:31:25.851Z,10.70
2018-02-05T05:33:54.220Z,10.73
2018-02-05T05:36:21.783Z,9.23
2018-02-05T05:38:49.396Z,10.87
2018-02-05T05:41:16.958Z,10.90
2018-02-05T05:43:44.588Z,11.90
2018-02-05T05:46:12.154Z,11.37
2018-02-05T05:48:39.761Z,15.23
2018-02-05T05:51:07.373Z,13.47
2018-02-05T05:53:35.711Z,13.37
2018-02-05T05:56:03.310Z,14.73
2018-02-05T05:58:30.911Z,11.00
2018-02-05T06:00:58.673Z,17.40
2018-02-05T06:03:26.329Z,14.67
2018-02-05T06:05:53.900Z,15.20
2018-02-05T06:08:21.568Z,13.37
2018-02-05T06:10:49.384Z,12.83
2018-02-05T06:13:16.994Z,12.93
2018-02-05T06:15:44.646Z,18.70
2018-02-05T06:18:12.306Z,14.53
2018-02-05T06:20:39.936Z,15.57
2018-02-05T06:23:08.308Z,18.23
2018-02-05T06:25:36.647Z,14.80
2018-02-05T06:28:04.284Z,14.50
2018-02-05T06:30:32.138Z,13.37
2018-02-05T06:32:59.759Z,15.63
2018-02-05T06:35:27.335Z,13.30
2018-02-05T06:37:54.968Z,11.70
2018-02-05T06:40:22.606Z,11.77
2018-02-05T06:42:50.172Z,12.47
2018-02-05T06:45:17.740Z,13.73
2018-02-05T06:47:45.352Z,11.43
2018-02-05T06:50:25.356Z,12.13
2018-02-05T06:53:04.758Z,13.87
2018-02-05T06:55:44.222Z,14.97
2018-02-05T06:58:11.865Z,12.90
2018-02-05T07:00:39.660Z,10.80
2018-02-05T07:03:07.234Z,11.50
2018-02-05T07:05:34.842Z,11.37
2018-02-05T07:08:02.416Z,15.40
2018-02-05T07:10:30.120Z,16.80
2018-02-05T07:12:57.963Z,16.37
2018-02-05T07:15:25.588Z,14.07
2018-02-05T07:17:53.213Z,13.37
2018-02-05T07:20:20.822Z,13.87
2018-02-05T07:22:48.387Z,11.00
2018-02-05T07:25:16.458Z,17.67
2018-02-05T07:27:44.065Z,15.13
2018-02-05T07:30:11.651Z,13.40
2018-02-05T07:32:39.404Z,12.10
2018-02-05T07:35:07.046Z,18.47
2018-02-05T07:37:34.650Z,17.90
2018-02-05T07:40:02.566Z,17.53
2018-02-05T07:42:30.199Z,13.67
2018-02-05T07:44:57.769Z,18.03
2018-02-05T07:47:25.650Z,17.73
2018-02-05T07:49:53.303Z,16.93
2018-02-05T07:52:21.131Z,14.80
2018-02-05T07:54:48.745Z,15.43
2018-02-05T07:57:16.345Z,14.13
2018-02-05T07:59:43.951Z,15.90
2018-02-05T08:02:11.543Z,15.47
2018-02-05T08:04:39.166Z,15.77
2018-02-05T08:07:06.925Z,14.97
2018-02-05T08:09:34.490Z,12.60
2018-02-05T08:12:02.196Z,14.27
2018-02-05T08:14:29.990Z,13.90
2018-02-05T08:16:58.359Z,14.33
2018-02-05T08:19:26.731Z,12.53
2018-02-05T08:21:54.347Z,11.43
2018-02-05T08:24:21.957Z,10.57
2018-02-05T08:26:49.533Z,11.57
2018-02-05T08:29:17.298Z,10.93
2018-02-05T08:31:45.726Z,11.87
2018-02-05T08:34:13.349Z,13.83
2018-02-05T08:36:41.922Z,12.57
2018-02-05T08:39:09.528Z,11.00
2018-02-05T08:41:39.920Z,13.77
2018-02-05T08:44:08.483Z,10.07
2018-02-05T08:46:36.061Z,12.00
2018-02-05T08:49:03.687Z,10.07
2018-02-05T08:51:31.399Z,12.30
2018-02-05T08:53:59.725Z,11.57
2018-02-05T08:56:27.319Z,12.20
2018-02-05T08:58:54.882Z,12.00
2018-02-05T09:01:22.647Z,10.43
2018-02-05T09:03:50.259Z,11.23
2018-02-05T09:06:17.870Z,10.13
2018-02-05T09:08:45.430Z,12.10
2018-02-05T09:11:13.816Z,9.40
2018-02-05T09:13:42.150Z,9.60
2018-02-05T09:16:09.713Z,8.70
2018-02-05T09:18:37.316Z,10.27
2018-02-05T09:21:05.775Z,9.50
2018-02-05T09:23:33.729Z,8.67
2018-02-05T09:26:01.358Z,8.90
2018-02-05T09:28:28.922Z,9.23
2018-02-05T09:30:56.489Z,11.23
2018-02-05T09:33:24.187Z,7.83
2018-02-05T09:35:51.758Z,8.60
2018-02-05T09:38:19.404Z,8.20
2018-02-05T09:40:47.058Z,10.57
2018-02-05T09:43:14.682Z,9.67
2018-02-05T09:45:44.363Z,9.17
2018-02-05T09:48:12.730Z,18.50
2018-02-05T09:50:40.330Z,9.97
2018-02-05T09:53:07.949Z,8.83
2018-02-05T09:55:35.504Z,7.33
2018-02-05T09:58:03.078Z,10.43
2018-02-05T10:00:30.882Z,8.13
2018-02-05T10:02:58.500Z,7.07
2018-02-05T10:05:26.099Z,11.70
2018-02-05T10:07:53.659Z,7.47
2018-02-05T10:10:21.258Z,9.53
2018-02-05T10:12:48.922Z,8.23
2018-02-05T10:15:16.538Z,6.93
2018-02-05T10:17:44.098Z,7.33
2018-02-05T10:20:12.488Z,8.37
2018-02-05T10:22:40.074Z,7.30
2018-02-05T10:25:07.634Z,8.00
2018-02-05T10:27:35.345Z,8.87
2018-02-05T10:30:02.949Z,7.60
2018-02-05T10:32:30.566Z,7.07
2018-02-05T10:34:58.142Z,8.83
2018-02-05T10:37:26.546Z,6.57
2018-02-05T10:39:54.109Z,7.23
2018-02-05T10:42:21.738Z,8.00
2018-02-05T10:44:50.131Z,9.73
2018-02-05T10:47:17.754Z,8.37
2018-02-05T10:49:45.358Z,10.77
2018-02-05T10:52:12.961Z,10.03
2018-02-05T10:54:41.432Z,14.27
2018-02-05T10:57:09.073Z,9.67
2018-02-05T10:59:36.674Z,11.53
2018-02-05T11:02:04.267Z,12.30
2018-02-05T11:04:31.943Z,10.83
2018-02-05T11:06:59.515Z,8.97
2018-02-05T11:09:27.135Z,11.13
2018-02-05T11:11:54.700Z,8.83
2018-02-05T11:14:22.257Z,9.10
2018-02-05T11:16:49.857Z,7.40
2018-02-05T11:19:18.147Z,6.83
2018-02-05T11:21:45.787Z,9.60
2018-02-05T11:24:13.345Z,6.80
2018-02-05T11:26:40.910Z,10.23
2018-02-05T11:29:08.506Z,9.73
2018-02-05T11:31:36.120Z,7.33
2018-02-05T11:34:04.493Z,8.57
2018-02-05T11:36:32.838Z,8.60
2018-02-05T11:39:00.407Z,10.53
2018-02-05T11:41:28.010Z,18.33
2018-02-05T11:43:55.574Z,40.83
2018-02-05T11:46:23.181Z,12.27
2018-02-05T11:48:50.855Z,10.83
2018-02-05T11:51:18.453Z,12.27
2018-02-05T11:53:46.059Z,10.17
2018-02-05T11:56:13.679Z,11.10
2018-02-05T11:58:41.302Z,9.37
2018-02-05T12:01:08.898Z,12.97
2018-02-05T12:03:36.462Z,9.30
2018-02-05T12:06:04.063Z,10.30
2018-02-05T12:08:31.693Z,9.47
2018-02-05T12:10:59.310Z,14.20
2018-02-05T12:13:26.890Z,11.13
2018-02-05T12:15:55.258Z,10.23
2018-02-05T12:18:22.822Z,11.40
2018-02-05T12:20:50.500Z,11.77
2018-02-05T12:23:18.852Z,9.07
2018-02-05T12:25:46.457Z,8.03
2018-02-05T12:28:14.027Z,9.30
2018-02-05T12:30:41.587Z,7.73
2018-02-05T12:33:09.187Z,9.80
2018-02-05T12:35:36.754Z,7.40
2018-02-05T12:38:04.354Z,8.83
2018-02-05T12:40:31.935Z,8.10
2018-02-05T12:42:59.537Z,7.30
2018-02-05T12:45:27.098Z,8.57
2018-02-05T12:47:54.764Z,6.87
2018-02-05T12:50:22.415Z,9.00
2018-02-05T12:52:49.985Z,7.43
2018-02-05T12:55:17.624Z,9.33
2018-02-05T12:57:45.298Z,8.90
2018-02-05T13:03:19.194Z,8.77
2018-02-05T13:06:05.505Z,10.93
2018-02-05T13:08:33.108Z,9.00
2018-02-05T13:11:00.679Z,9.40
2018-02-05T13:13:28.365Z,7.73
2018-02-05T13:15:55.966Z,25.60
2018-02-05T13:18:23.663Z,11.23
2018-02-05T13:20:51.267Z,8.53
2018-02-05T13:23:18.826Z,7.50
2018-02-05T13:25:46.431Z,8.07
2018-02-05T13:28:14.004Z,8.30
2018-02-05T13:30:41.598Z,9.83
2018-02-05T13:33:09.158Z,6.63
2018-02-05T13:35:36.774Z,10.07
2018-02-05T13:38:04.336Z,9.53
2018-02-05T13:40:31.914Z,8.57
2018-02-05T13:42:59.997Z,8.70
2018-02-05T13:45:27.597Z,11.43
2018-02-05T13:47:55.182Z,7.70
2018-02-05T13:50:22.796Z,8.27
2018-02-05T13:52:50.354Z,9.17
2018-02-05T13:55:17.919Z,8.93
2018-02-05T13:57:45.555Z,8.93
2018-02-05T14:00:13.148Z,9.27
2018-02-05T14:02:40.745Z,11.70
2018-02-05T14:05:08.299Z,9.47
2018-02-05T14:07:35.889Z,9.00
2018-02-05T14:10:03.454Z,9.93
2018-02-05T14:12:31.820Z,9.90
2018-02-05T14:15:00.183Z,15.07
2018-02-05T14:17:27.809Z,17.70
2018-02-05T14:19:55.410Z,13.07
2018-02-05T14:22:23.096Z,19.23
2018-02-05T14:24:50.667Z,11.73
2018-02-05T14:27:19.013Z,14.17
2018-02-05T14:29:46.613Z,13.97
2018-02-05T14:32:14.209Z,20.17
2018-02-05T14:34:41.872Z,13.87
2018-02-05T14:37:09.475Z,10.63
2018-02-05T14:39:37.050Z,15.13
2018-02-05T14:42:04.674Z,10.33
2018-02-05T14:44:32.277Z,19.00
2018-02-05T14:46:59.894Z,14.37
2018-02-05T14:49:27.464Z,14.73
2018-02-05T14:51:55.031Z,13.50
2018-02-05T14:54:22.633Z,13.50
2018-02-05T14:56:51.005Z,20.80
2018-02-05T14:59:19.338Z,14.20
2018-02-05T15:01:46.947Z,11.57
2018-02-05T15:04:14.581Z,12.77
2018-02-05T15:06:42.140Z,10.77
2018-02-05T15:09:09.711Z,12.87
2018-02-05T15:11:37.354Z,13.20
2018-02-05T15:14:04.935Z,9.20
2018-02-05T15:16:32.578Z,13.43
2018-02-05T15:19:00.183Z,10.23
2018-02-05T15:21:27.747Z,12.07
2018-02-05T15:23:55.558Z,7.63
2018-02-05T15:26:23.122Z,9.57
2018-02-05T15:28:50.721Z,12.83
2018-02-05T15:31:19.113Z,10.00
2018-02-05T15:33:46.898Z,11.13
2018-02-05T15:36:14.468Z,11.03
2018-02-05T15:38:42.148Z,12.17
2018-02-05T15:41:09.790Z,11.27
2018-02-05T15:43:37.401Z,11.30
2018-02-05T15:46:04.966Z,12.37
2018-02-05T15:48:32.539Z,18.10
2018-02-05T15:51:00.922Z,10.30
2018-02-05T15:53:29.252Z,11.03
2018-02-05T15:55:56.838Z,11.87
2018-02-05T15:58:24.447Z,9.13
2018-02-05T16:00:52.052Z,12.53
2018-02-05T16:03:19.656Z,11.50
2018-02-05T16:05:47.209Z,9.30
2018-02-05T16:08:15.594Z,12.27
2018-02-05T16:10:43.162Z,11.67
2018-02-05T16:13:10.770Z,11.87
2018-02-05T16:15:38.334Z,11.87
2018-02-05T16:18:05.958Z,7.10
2018-02-05T16:20:33.513Z,9.00
2018-02-05T16:23:01.133Z,11.87
2018-02-05T16:25:28.734Z,10.83
2018-02-05T16:27:56.303Z,10.73
2018-02-05T16:30:23.905Z,9.80
2018-02-05T16:32:51.502Z,10.30
2018-02-05T16:35:19.121Z,11.73
2018-02-05T16:37:46.682Z,9.47
2018-02-05T16:40:14.249Z,10.80
2018-02-05T16:42:41.843Z,14.33
2018-02-05T16:45:09.446Z,13.80
2018-02-05T16:47:37.066Z,12.90
2018-02-05T16:50:04.622Z,13.67
2018-02-05T16:52:32.201Z,12.90
2018-02-05T16:54:59.806Z,13.27
2018-02-05T16:57:27.383Z,11.47
2018-02-05T16:59:55.064Z,13.50
2018-02-05T17:02:22.674Z,11.13
2018-02-05T17:04:50.318Z,14.50
2018-02-05T17:07:17.918Z,16.27
2018-02-05T17:09:45.518Z,15.63
2018-02-05T17:12:13.150Z,11.83
2018-02-05T17:14:41.645Z,12.67
2018-02-05T17:17:09.395Z,11.87
2018-02-05T17:19:36.977Z,13.97
2018-02-05T17:22:04.608Z,14.10
2018-02-05T17:24:32.249Z,16.67
2018-02-05T17:26:59.858Z,18.10
2018-02-05T17:29:27.525Z,15.13
2018-02-05T17:31:56.015Z,18.47
2018-02-05T17:34:23.637Z,18.43
2018-02-05T17:36:51.278Z,16.30
2018-02-05T17:39:18.909Z,17.10
2018-02-05T17:41:46.498Z,17.40
2018-02-05T17:44:14.077Z,18.77
2018-02-05T17:46:41.712Z,18.40
2018-02-05T17:49:09.283Z,15.63
2018-02-05T17:51:36.890Z,16.20
2018-02-05T17:54:04.466Z,15.53
2018-02-05T17:56:32.126Z,15.37
2018-02-05T17:58:59.706Z,16.93
2018-02-05T18:01:27.321Z,16.97
2018-02-05T18:03:54.935Z,15.90
2018-02-05T18:06:22.567Z,16.80
2018-02-05T18:08:50.174Z,18.70
2018-02-05T18:11:17.778Z,17.10
2018-02-05T18:13:45.402Z,16.80
2018-02-05T18:16:13.006Z,17.07
2018-02-05T18:18:40.622Z,15.40
2018-02-05T18:21:08.237Z,16.53
2018-02-05T18:23:35.804Z,19.67
2018-02-05T18:26:03.418Z,17.27
2018-02-05T18:28:30.987Z,19.17
2018-02-05T18:30:58.649Z,20.27
2018-02-05T18:33:26.253Z,17.30
2018-02-05T18:35:53.879Z,19.67
2018-02-05T18:38:21.470Z,21.07
2018-02-05T18:40:49.087Z,19.20
2018-02-05T18:43:16.750Z,17.30
2018-02-05T18:45:44.296Z,18.10
2018-02-05T18:48:11.910Z,17.43
2018-02-05T18:50:39.617Z,15.87
2018-02-05T18:53:07.189Z,21.57
2018-02-05T18:55:34.785Z,18.17
2018-02-05T18:58:03.255Z,20.67
2018-02-05T19:00:42.643Z,21.90
2018-02-05T19:03:10.290Z,19.57
2018-02-05T19:05:38.623Z,19.20
2018-02-05T19:08:06.238Z,20.13
2018-02-05T19:10:33.818Z,22.77
2018-02-05T19:13:01.454Z,22.40
2018-02-05T19:15:29.029Z,24.20
2018-02-05T19:17:56.918Z,23.13
2018-02-05T19:20:24.561Z,22.67
2018-02-05T19:22:52.195Z,23.00
2018-02-05T19:25:20.018Z,23.60
2018-02-05T19:27:47.639Z,23.13
2018-02-05T19:30:15.247Z,23.67
2018-02-05T19:32:42.884Z,25.53
2018-02-05T19:35:10.522Z,22.10
2018-02-05T19:37:38.121Z,21.43
2018-02-05T19:40:05.722Z,20.37
2018-02-05T19:42:33.373Z,26.77
2018-02-05T19:45:00.934Z,29.53
2018-02-05T19:47:28.510Z,20.17
2018-02-05T19:49:56.909Z,23.77
2018-02-05T19:52:24.517Z,28.70
2018-02-05T19:54:52.199Z,26.27
2018-02-05T19:57:19.775Z,25.40
2018-02-05T19:59:47.390Z,23.90
2018-02-05T20:02:14.986Z,23.73
2018-02-05T20:04:42.604Z,23.83
2018-02-05T20:07:10.214Z,24.37
2018-02-05T20:09:37.906Z,24.83
2018-02-05T20:12:05.563Z,25.17
2018-02-05T20:14:33.946Z,26.50
2018-02-05T20:17:01.533Z,26.60
2018-02-05T20:19:29.133Z,27.53
2018-02-05T20:21:56.738Z,24.60
2018-02-05T20:24:24.317Z,23.30
2018-02-05T20:26:51.917Z,25.47
2018-02-05T20:29:19.511Z,28.20
2018-02-05T20:31:47.123Z,27.00
2018-02-05T20:34:14.815Z,24.83
2018-02-05T20:36:43.246Z,29.30
2018-02-05T20:39:10.889Z,32.00
2018-02-05T20:41:38.472Z,26.63
2018-02-05T20:44:06.083Z,27.33
2018-02-05T20:46:33.658Z,27.13
2018-02-05T20:49:02.043Z,24.63
2018-02-05T20:51:29.626Z,27.73
2018-02-05T20:53:57.237Z,30.93
2018-02-05T20:56:24.895Z,26.53
2018-02-05T20:58:52.477Z,25.30
2018-02-05T21:01:20.087Z,24.67
2018-02-05T21:03:47.700Z,22.60
2018-02-05T21:06:16.080Z,24.77
2018-02-05T21:08:44.443Z,26.37
2018-02-05T21:11:12.034Z,27.37
2018-02-05T21:13:39.638Z,25.80
2018-02-05T21:16:07.253Z,26.57
2018-02-05T21:18:34.866Z,27.40
2018-02-05T21:21:02.546Z,27.53
2018-02-05T21:23:30.156Z,28.40
2018-02-05T21:25:57.745Z,24.47
2018-02-05T21:28:25.375Z,24.87
2018-02-05T21:30:52.994Z,26.27
2018-02-05T21:33:20.593Z,29.07
2018-02-05T21:35:48.165Z,26.77
2018-02-05T21:38:15.794Z,27.50
2018-02-05T21:40:44.146Z,26.50
2018-02-05T21:43:11.753Z,24.53
2018-02-05T21:45:39.368Z,26.07
2018-02-05T21:48:07.007Z,29.37
2018-02-05T21:50:34.580Z,27.83
2018-02-05T21:53:02.200Z,23.60
2018-02-05T21:55:29.831Z,27.37
2018-02-05T21:57:58.233Z,28.43
2018-02-05T22:00:26.766Z,35.77
2018-02-05T22:02:54.347Z,42.77
2018-02-05T22:05:21.960Z,37.00
2018-02-05T22:07:49.589Z,35.20
2018-02-05T22:10:17.936Z,30.77
2018-02-05T22:12:45.518Z,37.20
2018-02-05T22:15:13.134Z,32.30
2018-02-05T22:17:40.705Z,32.17
2018-02-05T22:20:08.360Z,33.63
2018-02-05T22:22:35.953Z,36.23
2018-02-05T22:25:03.534Z,34.47
2018-02-05T22:27:31.140Z,33.47
2018-02-05T22:29:58.714Z,29.40
2018-02-05T22:32:26.322Z,33.87
2018-02-05T22:34:54.707Z,35.80
2018-02-05T22:37:22.334Z,34.40
2018-02-05T22:39:49.911Z,35.33
2018-02-05T22:42:18.390Z,34.97
2018-02-05T22:44:46.892Z,35.00
2018-02-05T22:47:14.480Z,40.53
2018-02-05T22:49:42.090Z,35.47
2018-02-05T22:52:09.666Z,36.07
2018-02-05T22:54:38.045Z,38.53
2018-02-05T22:57:06.386Z,31.83
2018-02-05T22:59:34.010Z,34.37
2018-02-05T23:02:01.667Z,38.20
2018-02-05T23:04:29.242Z,33.00
2018-02-05T23:06:56.857Z,34.73
2018-02-05T23:09:24.475Z,29.97
2018-02-05T23:11:52.094Z,36.50
2018-02-05T23:14:20.429Z,38.60
2018-02-05T23:16:48.015Z,35.20
2018-02-05T23:19:15.635Z,36.90
2018-02-05T23:21:43.203Z,31.40
2018-02-05T23:24:10.816Z,36.63
2018-02-05T23:26:38.390Z,35.63
2018-02-05T23:29:07.160Z,30.63
2018-02-05T23:31:35.100Z,34.87
2018-02-05T23:34:02.698Z,32.77
2018-02-05T23:36:30.311Z,35.87
2018-02-05T23:38:58.490Z,32.57
2018-02-05T23:41:26.835Z,34.27
2018-02-05T23:43:54.851Z,34.63
2018-02-05T23:46:22.653Z,35.70
2018-02-05T23:48:50.291Z,34.43
2018-02-05T23:51:17.907Z,29.93
2018-02-05T23:53:45.710Z,36.77
2018-02-05T23:56:13.648Z,30.87
2018-02-05T23:58:41.289Z,34.23
